Time;durP1;ratioP1;P1;durP2;ratioP2;P2;SDS_P1;SDS_P2;PMS_P1;PMS_P2;Temp;Humidity;BMP_temperature;BMP_pressure;BME280_temperature;BME280_humidity;BME280_pressure;Samples;Min_cycle;Max_cycle;Signal;HPM_P1;HPM_P2
2022/04/10 00:01:49;;;;;;;24.33;17.60;;;;;;;;;;5016084;28;20539;-75
2022/04/10 00:04:16;;;;;;;14.07;10.77;;;;;;;;;;5033767;28;20071;-76
2022/04/10 00:06:42;;;;;;;14.50;11.63;;;;;;;;;;5033733;28;20534;-75
2022/04/10 00:09:07;;;;;;;18.38;13.05;;;230.80;2252.80;;;;;;5033709;28;20438;-77
2022/04/10 00:11:33;;;;;;;14.32;10.93;;;230.50;2252.80;;;;;;5038082;28;20017;-76
2022/04/10 00:13:59;;;;;;;20.40;14.07;;;230.50;2252.80;;;;;;5062768;28;20039;-74
2022/04/10 00:16:25;;;;;;;21.42;14.05;;;;;;;;;;5054676;28;20028;-74
2022/04/10 00:18:51;;;;;;;20.42;13.80;;;230.70;2252.80;;;;;;5052248;28;20056;-74
2022/04/10 00:21:17;;;;;;;11.55;8.35;;;230.70;2252.80;;;;;;5047961;28;20387;-74
2022/04/10 00:23:43;;;;;;;22.00;15.07;;;230.60;2252.80;;;;;;5039288;28;20025;-73
2022/04/10 00:26:11;;;;;;;13.95;11.38;;;230.70;2252.80;;;;;;5036476;28;20028;-74
2022/04/10 00:28:36;;;;;;;15.75;11.25;;;230.60;2252.80;;;;;;5048636;28;20025;-74
2022/04/10 00:31:02;;;;;;;15.45;11.18;;;;;;;;;;5052705;28;20021;-74
2022/04/10 00:33:28;;;;;;;17.52;11.10;;;230.70;2252.80;;;;;;5052367;28;20487;-74
2022/04/10 00:35:54;;;;;;;19.92;13.63;;;230.70;2252.80;;;;;;5039563;28;20022;-74
2022/04/10 00:38:20;;;;;;;16.88;10.68;;;230.60;2252.80;;;;;;5043659;28;20087;-75
2022/04/10 00:40:46;;;;;;;20.23;13.50;;;;;;;;;;5036575;28;20021;-73
2022/04/10 00:43:12;;;;;;;12.85;8.68;;;230.80;2252.80;;;;;;5035845;28;20071;-75
2022/04/10 00:45:38;;;;;;;13.23;8.95;;;230.70;2252.80;;;;;;5033222;28;20025;-76
2022/04/10 00:48:07;;;;;;;11.43;6.85;;;;;;;;;;5031333;28;20603;-73
2022/04/10 00:50:33;;;;;;;11.98;8.02;;;;;;;;;;5034605;28;20471;-74
2022/04/10 00:52:59;;;;;;;11.25;6.95;;;;;;;;;;5032449;28;20079;-72
2022/04/10 00:55:25;;;;;;;12.95;8.43;;;230.50;2252.80;;;;;;5032380;28;20108;-73
2022/04/10 00:57:51;;;;;;;14.55;9.35;;;;;;;;;;5032252;28;20109;-73
2022/04/10 01:00:17;;;;;;;8.93;6.00;;;;;;;;;;5032281;28;20033;-72
2022/04/10 01:02:43;;;;;;;10.75;6.95;;;;;;;;;;5032044;28;20032;-73
2022/04/10 01:05:09;;;;;;;5.82;4.05;;;;;;;;;;5032305;28;20473;-73
2022/04/10 01:07:39;;;;;;;12.23;6.55;;;;;;;;;;5032499;28;20025;-73
2022/04/10 01:10:06;;;;;;;9.90;6.35;;;;;;;;;;5032303;28;20021;-73
2022/04/10 01:12:34;;;;;;;8.20;4.70;;;;;;;;;;5035088;28;20033;-73
2022/04/10 01:15:01;;;;;;;7.13;4.55;;;;;;;;;;5052013;28;20379;-74
2022/04/10 01:17:28;;;;;;;7.88;5.07;;;;;;;;;;5051860;28;20032;-72
2022/04/10 01:19:55;;;;;;;7.90;4.65;;;205.20;2252.80;;;;;;5051803;28;20056;-74
2022/04/10 01:22:27;;;;;;;7.13;4.47;;;;;;;;;;5051702;28;20026;-73
2022/04/10 01:24:53;;;;;;;4.90;3.38;;;;;;;;;;5052077;28;20025;-73
2022/04/10 01:27:20;;;;;;;8.00;4.82;;;;;;;;;;5051982;28;20028;-73
2022/04/10 01:29:46;;;;;;;7.80;4.75;;;;;;;;;;5051928;28;20017;-72
2022/04/10 01:32:12;;;;;;;3.92;3.15;;;;;;;;;;5051585;28;20033;-75
2022/04/10 01:34:38;;;;;;;5.18;3.50;;;;;;;;;;5049027;28;20033;-75
2022/04/10 01:37:05;;;;;;;16.67;9.23;;;;;;;;;;5052891;28;20482;-81
2022/04/10 01:39:31;;;;;;;10.90;6.13;;;;;;;;;;5053330;28;20025;-79
2022/04/10 01:41:57;;;;;;;8.35;4.50;;;;;;;;;;5053319;28;20523;-82
2022/04/10 01:44:23;;;;;;;5.60;3.78;;;;;;;;;;5053206;28;20395;-76
2022/04/10 01:46:49;;;;;;;6.88;3.97;;;;;;;;;;5052583;28;20032;-77
2022/04/10 01:49:15;;;;;;;6.43;3.50;;;;;;;;;;5052578;28;20455;-80
2022/04/10 01:51:41;;;;;;;6.40;3.40;;;;;;;;;;5055139;28;20464;-77
2022/04/10 01:54:08;;;;;;;13.32;7.22;;;;;;;;;;5056501;28;20060;-79
2022/04/10 01:56:34;;;;;;;23.50;14.60;;;;;;;;;;5056566;28;20021;-77
2022/04/10 01:59:00;;;;;;;11.13;7.10;;;;;;;;;;5056819;28;20029;-87
2022/04/10 02:01:26;;;;;;;8.18;4.15;;;;;;;;;;5056638;28;20032;-78
2022/04/10 02:03:52;;;;;;;7.32;4.10;;;;;;;;;;5056417;28;20021;-82
2022/04/10 02:06:18;;;;;;;9.70;5.60;;;;;;;;;;5056379;28;20032;-83
2022/04/10 02:08:44;;;;;;;7.93;4.55;;;;;;;;;;5056308;28;20021;-77
2022/04/10 02:11:11;;;;;;;5.53;3.40;;;;;;;;;;5056236;28;20075;-83
2022/04/10 02:13:37;;;;;;;4.10;2.80;;;;;;;;;;5056183;28;20041;-76
2022/04/10 02:16:05;;;;;;;6.82;4.03;;;;;;;;;;5056177;28;20067;-77
2022/04/10 02:18:31;;;;;;;4.95;3.08;;;;;;;;;;5055578;28;20102;-77
2022/04/10 02:20:57;;;;;;;7.38;4.22;;;;;;;;;;5055978;28;20017;-83
2022/04/10 02:23:23;;;;;;;6.80;3.80;;;;;;;;;;5037977;28;20479;-78
2022/04/10 02:25:49;;;;;;;11.02;6.75;;;;;;;;;;5056026;28;20028;-79
2022/04/10 02:28:15;;;;;;;5.82;3.50;;;;;;;;;;5055878;28;20063;-76
2022/04/10 02:30:41;;;;;;;10.55;5.50;;;;;;;;;;5055860;28;20025;-79
2022/04/10 02:33:07;;;;;;;6.47;4.20;;;;;;;;;;5055482;28;20043;-77
2022/04/10 02:35:33;;;;;;;7.70;4.20;;;;;;;;;;5055783;28;20475;-76
2022/04/10 02:37:59;;;;;;;7.60;4.22;;;;;;;;;;5055533;28;20100;-75
2022/04/10 02:40:25;;;;;;;6.78;4.38;;;205.30;2252.80;;;;;;5055741;28;20025;-76
2022/04/10 02:42:51;;;;;;;12.82;7.15;;;;;;;;;;5055740;28;20017;-74
2022/04/10 02:45:17;;;;;;;6.35;4.10;;;205.00;2252.80;;;;;;5055324;28;20025;-82
2022/04/10 02:47:42;;;;;;;3.40;2.38;;;205.10;2252.80;;;;;;5055728;28;20124;-76
2022/04/10 02:50:08;;;;;;;3.25;2.30;;;205.20;2252.80;;;;;;5055351;28;20450;-76
2022/04/10 02:52:34;;;;;;;4.75;2.90;;;;;;;;;;5055573;28;20534;-75
2022/04/10 02:55:00;;;;;;;3.58;2.40;;;205.70;2252.80;;;;;;5055232;28;20087;-77
2022/04/10 02:57:27;;;;;;;3.22;2.30;;;;;;;;;;5055328;28;20471;-79
2022/04/10 02:59:53;;;;;;;3.58;2.63;;;;;;;;;;5055433;28;20021;-74
2022/04/10 03:02:19;;;;;;;4.03;2.85;;;;;;;;;;5054811;28;20029;-74
2022/04/10 03:04:45;;;;;;;4.50;3.03;;;;;;;;;;5055168;28;20097;-75
2022/04/10 03:07:11;;;;;;;6.03;3.88;;;;;;;;;;5055068;28;20056;-76
2022/04/10 03:09:37;;;;;;;4.95;3.15;;;;;;;;;;5054952;28;20024;-76
2022/04/10 03:12:04;;;;;;;7.38;4.55;;;205.40;2252.80;;;;;;5054856;28;20025;-76
2022/04/10 03:14:30;;;;;;;7.22;4.90;;;205.40;2252.80;;;;;;5054942;28;20025;-76
2022/04/10 03:16:57;;;;;;;6.63;4.70;;;205.40;2252.80;;;;;;5054781;28;20171;-76
2022/04/10 03:19:22;;;;;;;6.10;4.30;;;205.40;2252.80;;;;;;5016156;28;20115;-77
2022/04/10 03:21:48;;;;;;;4.88;3.45;;;205.30;2252.80;;;;;;5034887;28;20029;-77
2022/04/10 03:24:14;;;;;;;4.93;3.80;;;205.30;2252.80;;;;;;5034755;28;20466;-77
2022/04/10 03:26:40;;;;;;;4.05;3.47;;;205.30;2252.80;;;;;;5034601;28;20056;-77
2022/04/10 03:29:06;;;;;;;4.78;4.13;;;;;;;;;;5033240;28;20059;-77
2022/04/10 03:31:32;;;;;;;5.30;3.88;;;;;;;;;;5033275;28;20021;-77
2022/04/10 03:33:58;;;;;;;5.72;4.45;;;;;;;;;;5033021;28;20395;-77
2022/04/10 03:36:24;;;;;;;5.13;3.95;;;;;;;;;;5034567;28;20443;-77
2022/04/10 03:38:50;;;;;;;4.15;3.47;;;;;;;;;;5034615;28;20025;-76
2022/04/10 03:41:16;;;;;;;5.22;3.85;;;;;;;;;;5033269;28;20032;-77
2022/04/10 03:43:42;;;;;;;5.53;4.00;;;;;;;;;;5034589;28;20021;-77
2022/04/10 03:46:08;;;;;;;4.57;3.78;;;;;;;;;;5034402;28;20104;-76
2022/04/10 03:48:34;;;;;;;5.15;3.63;;;205.40;2252.80;;;;;;5034417;28;20033;-78
2022/04/10 03:51:00;;;;;;;6.15;4.43;;;205.70;2252.80;;;;;;5034406;28;20026;-78
2022/04/10 03:53:25;;;;;;;8.18;4.72;;;205.60;2252.80;;;;;;5034208;28;20030;-79
2022/04/10 03:55:51;;;;;;;11.88;8.10;;;205.70;2252.80;;;;;;5034433;28;20049;-78
2022/04/10 03:58:17;;;;;;;7.28;4.95;;;205.70;2252.80;;;;;;5034143;28;20017;-78
2022/04/10 04:00:44;;;;;;;8.15;5.78;;;230.40;2252.80;;;;;;5034322;28;20018;-78
2022/04/10 04:03:10;;;;;;;7.50;4.85;;;;;;;;;;5034112;28;20559;-75
2022/04/10 04:05:36;;;;;;;6.03;4.30;;;;;;;;;;5033780;28;20029;-76
2022/04/10 04:08:03;;;;;;;6.45;4.90;;;;;;;;;;5034004;28;20108;-77
2022/04/10 04:10:30;;;;;;;6.05;4.28;;;;;;;;;;5033737;28;20028;-77
2022/04/10 04:12:56;;;;;;;6.85;6.00;;;;;;;;;;5033169;28;20068;-76
2022/04/10 04:15:22;;;;;;;5.82;4.35;;;;;;;;;;5033763;28;20022;-77
2022/04/10 04:17:48;;;;;;;6.03;4.45;;;;;;;;;;5033997;28;20018;-77
2022/04/10 04:20:14;;;;;;;4.63;3.80;;;;;;;;;;5051396;28;20064;-78
2022/04/10 04:22:40;;;;;;;4.18;3.33;;;;;;;;;;5053582;28;20025;-76
2022/04/10 04:25:06;;;;;;;4.75;3.85;;;;;;;;;;5054091;28;20071;-79
2022/04/10 04:27:33;;;;;;;4.60;3.47;;;;;;;;;;5054360;28;20108;-79
2022/04/10 04:30:01;;;;;;;5.38;4.40;;;;;;;;;;5053803;28;20024;-76
2022/04/10 04:32:27;;;;;;;5.88;4.95;;;;;;;;;;5035799;28;20096;-78
2022/04/10 04:34:53;;;;;;;7.43;4.80;;;;;;;;;;5035590;28;20017;-78
2022/04/10 04:37:19;;;;;;;6.53;5.03;;;;;;;;;;5035708;28;20060;-79
2022/04/10 04:39:45;;;;;;;8.35;6.60;;;;;;;;;;5035856;28;20540;-80
2022/04/10 04:42:11;;;;;;;8.68;6.10;;;;;;;;;;5035637;28;20435;-78
2022/04/10 04:44:37;;;;;;;8.48;6.25;;;;;;;;;;5053731;28;20487;-75
2022/04/10 04:47:03;;;;;;;8.65;5.68;;;;;;;;;;5053575;28;20479;-84
2022/04/10 04:49:29;;;;;;;8.63;6.30;;;;;;;;;;5053549;28;20037;-77
2022/04/10 04:51:55;;;;;;;8.93;5.75;;;230.50;2252.80;;;;;;5053405;28;20029;-76
2022/04/10 04:54:21;;;;;;;8.13;5.55;;;230.50;2252.80;;;;;;5053611;28;20087;-77
2022/04/10 04:56:47;;;;;;;7.82;6.57;;;230.40;2252.80;;;;;;5053747;28;20045;-78
2022/04/10 04:59:14;;;;;;;8.95;6.45;;;230.60;2252.80;;;;;;5053737;28;20028;-76
2022/04/10 05:01:44;;;;;;;7.43;6.13;;;230.60;2252.80;;;;;;5035203;28;20111;-75
2022/04/10 05:04:11;;;;;;;11.25;7.88;;;;;;;;;;5053106;28;20029;-76
2022/04/10 05:06:38;;;;;;;11.50;9.15;;;230.50;2252.80;;;;;;5052964;28;20091;-78
2022/04/10 05:09:04;;;;;;;30.58;19.17;;;230.60;2252.80;;;;;;5053064;28;20031;-78
2022/04/10 05:11:30;;;;;;;18.00;12.48;;;230.40;2252.80;;;;;;5035354;28;20043;-78
2022/04/10 05:13:56;;;;;;;12.35;8.95;;;205.60;2252.80;;;;;;5053070;28;20554;-79
2022/04/10 05:16:22;;;;;;;10.60;7.85;;;205.70;2252.80;;;;;;5053491;28;20105;-79
2022/04/10 05:18:49;;;;;;;9.23;7.40;;;205.60;2252.80;;;;;;5052960;28;20049;-78
2022/04/10 05:21:14;;;;;;;9.45;7.78;;;230.40;2252.80;;;;;;5053100;28;20094;-77
2022/04/10 05:23:40;;;;;;;8.55;6.55;;;205.70;2252.80;;;;;;5053118;28;20025;-77
2022/04/10 05:26:06;;;;;;;8.88;6.88;;;205.60;2252.80;;;;;;5056342;28;20025;-75
2022/04/10 05:28:33;;;;;;;9.43;6.50;;;205.60;2252.80;;;;;;5057013;28;20118;-77
2022/04/10 05:30:59;;;;;;;7.18;5.63;;;205.70;2252.80;;;;;;5057043;28;20052;-77
2022/04/10 05:33:25;;;;;;;6.95;6.25;;;205.70;2252.80;;;;;;5057051;28;20040;-78
2022/04/10 05:35:53;;;;;;;7.00;6.22;;;205.70;2252.80;;;;;;5056894;28;20016;-77
2022/04/10 05:38:19;;;;;;;12.60;8.60;;;205.70;2252.80;;;;;;5056746;28;20024;-77
2022/04/10 05:40:52;;;;;;;13.48;9.65;;;205.70;2252.80;;;;;;5057004;28;20029;-76
2022/04/10 05:43:18;;;;;;;9.95;7.60;;;;;;;;;;5056644;28;20025;-76
2022/04/10 05:45:44;;;;;;;10.90;8.52;;;;;;;;;;5056616;28;20032;-78
2022/04/10 05:48:10;;;;;;;10.98;8.75;;;;;;;;;;5056564;28;20028;-74
2022/04/10 05:50:36;;;;;;;12.48;8.75;;;;;;;;;;5056121;28;20021;-79
2022/04/10 05:53:03;;;;;;;12.88;10.50;;;;;;;;;;5038222;28;20086;-75
2022/04/10 05:55:29;;;;;;;14.07;10.70;;;230.80;2252.80;;;;;;5056275;28;20100;-74
2022/04/10 05:57:54;;;;;;;16.95;12.45;;;230.80;2252.80;;;;;;5056430;28;20113;-77
2022/04/10 06:00:21;;;;;;;14.00;8.15;;;230.70;2252.80;;;;;;5056703;28;20429;-79
2022/04/10 06:02:47;;;;;;;10.75;8.55;;;230.60;2252.80;;;;;;5038930;28;20057;-81
2022/04/10 06:05:13;;;;;;;16.02;9.55;;;230.40;2252.80;;;;;;5038341;28;20029;-79
2022/04/10 06:07:38;;;;;;;13.73;10.13;;;230.50;2252.80;;;;;;5038619;28;20390;-77
2022/04/10 06:10:06;;;;;;;13.52;8.55;;;230.50;2252.80;;;;;;5056106;28;20110;-77
2022/04/10 06:12:32;;;;;;;17.02;11.88;;;230.50;2252.80;;;;;;5056226;28;20033;-80
2022/04/10 06:14:58;;;;;;;12.85;10.07;;;230.50;2252.80;;;;;;5056245;28;20029;-79
2022/04/10 06:17:24;;;;;;;12.02;10.05;;;;;;;;;;5037985;28;20044;-78
2022/04/10 06:19:50;;;;;;;13.27;11.23;;;;;;;;;;5055396;28;20406;-77
2022/04/10 06:22:16;;;;;;;13.88;10.73;;;230.40;2252.80;;;;;;5056179;28;20096;-78
2022/04/10 06:24:42;;;;;;;15.25;12.30;;;230.40;2252.80;;;;;;5055873;28;20060;-79
2022/04/10 06:27:08;;;;;;;16.10;12.45;;;230.50;2252.80;;;;;;5056141;28;20475;-76
2022/04/10 06:29:33;;;;;;;14.82;11.73;;;230.50;2252.80;;;;;;5037907;28;20033;-75
2022/04/10 06:31:59;;;;;;;21.75;15.18;;;230.60;2252.80;;;;;;5055530;28;20352;-79
2022/04/10 06:34:25;;;;;;;24.17;16.33;;;230.80;2252.80;;;;;;5055717;28;20036;-78
2022/04/10 06:36:50;;;;;;;72.90;54.22;;;230.90;2252.80;;;;;;5054915;28;20017;-86
2022/04/10 06:39:16;;;;;;;23.67;20.38;;;230.80;2252.80;;;;;;5055772;28;20036;-83
2022/04/10 06:41:42;;;;;;;66.53;49.88;;;230.90;2252.80;;;;;;5056182;28;20482;-82
2022/04/10 06:44:09;;;;;;;21.80;17.80;;;230.90;2252.80;;;;;;5038130;28;20047;-82
2022/04/10 06:46:35;;;;;;;76.65;58.20;;;230.90;2252.80;;;;;;5037688;28;20514;-73
2022/04/10 06:49:00;;;;;;;29.17;24.98;;;230.90;2252.80;;;;;;5055555;28;20037;-76
2022/04/10 06:51:27;;;;;;;22.98;20.60;;;231.00;2252.80;;;;;;5055649;28;20095;-79
2022/04/10 06:53:52;;;;;;;16.25;13.57;;;231.10;2252.80;;;;;;5037526;28;20040;-78
2022/04/10 06:56:18;;;;;;;16.67;14.75;;;231.10;2252.80;;;;;;5055452;28;20021;-80
2022/04/10 06:58:44;;;;;;;19.27;17.35;;;;;;;;;;5037566;28;20116;-78
2022/04/10 07:01:10;;;;;;;28.38;21.80;;;230.50;2252.80;;;;;;5037116;28;20088;-80
2022/04/10 07:03:36;;;;;;;25.98;23.15;;;230.60;2252.80;;;;;;5055360;28;20024;-79
2022/04/10 07:06:02;;;;;;;27.83;24.92;;;;;;;;;;5037900;28;20028;-77
2022/04/10 07:08:28;;;;;;;12.50;10.52;;;;;;;;;;5055046;28;20055;-80
2022/04/10 07:10:54;;;;;;;14.65;13.13;;;;;;;;;;5055336;28;20024;-80
2022/04/10 07:13:21;;;;;;;12.05;10.23;;;;;;;;;;5055041;28;20056;-80
2022/04/10 07:15:52;;;;;;;16.88;14.82;;;;;;;;;;5055187;28;20023;-77
2022/04/10 07:18:19;;;;;;;12.47;10.97;;;230.90;2252.80;;;;;;5036361;28;20505;-78
2022/04/10 07:20:45;;;;;;;13.70;11.10;;;230.90;2252.80;;;;;;5036895;28;20031;-78
2022/04/10 07:25:56;;;;;;;16.77;12.40;;;230.70;2252.80;;;;;;5054897;28;20094;-78
2022/04/10 07:28:22;;;;;;;18.60;14.30;;;;;;;;;;5036835;28;20028;-79
2022/04/10 07:30:48;;;;;;;17.85;14.00;;;231.10;2252.80;;;;;;5054751;28;20021;-80
2022/04/10 07:33:14;;;;;;;15.77;11.57;;;231.00;2252.80;;;;;;5054751;28;20035;-79
2022/04/10 07:35:41;;;;;;;20.70;14.90;;;231.10;2252.80;;;;;;5036738;28;20017;-80
2022/04/10 07:38:08;;;;;;;17.00;14.13;;;231.10;2252.80;;;;;;5036835;28;20383;-79
2022/04/10 07:40:35;;;;;;;24.23;16.80;;;231.10;2252.80;;;;;;5054451;28;20017;-79
2022/04/10 07:43:02;;;;;;;22.95;16.20;;;;;;;;;;5036700;28;20104;-78
2022/04/10 07:48:12;;;;;;;24.65;20.20;;;;;;;;;;5054465;28;20040;-82
2022/04/10 07:50:38;;;;;;;28.67;22.70;;;;;;;;;;5054583;28;20573;-82
2022/04/10 07:53:05;;;;;;;20.63;15.73;;;;;;;;;;5036417;28;20056;-82
2022/04/10 07:55:31;;;;;;;19.77;16.15;;;;;;;;;;5036784;28;20479;-81
2022/04/10 07:57:57;;;;;;;11.90;9.77;;;231.10;2252.80;;;;;;5036334;28;20033;-81
2022/04/10 08:00:23;;;;;;;17.27;14.18;;;231.00;2252.80;;;;;;5035664;28;20033;-81
2022/04/10 08:02:49;;;;;;;24.33;21.13;;;231.00;2252.80;;;;;;5036203;28;20115;-80
2022/04/10 08:05:17;;;;;;;18.30;15.35;;;231.20;2252.80;;;;;;5053803;28;20053;-78
2022/04/10 08:07:44;;;;;;;17.00;12.93;;;231.10;2252.80;;;;;;5053766;28;20146;-82
2022/04/10 08:10:10;;;;;;;35.22;25.88;;;;;;;;;;5053608;28;20063;-87
2022/04/10 08:12:37;;;;;;;37.30;30.48;;;;;;;;;;5061365;28;20033;-91
2022/04/10 08:15:03;;;;;;;29.95;23.65;;;231.30;2252.80;;;;;;5054705;28;20100;-83
2022/04/10 08:17:29;;;;;;;25.20;21.42;;;256.00;2252.80;;;;;;5053838;28;20025;-82
2022/04/10 08:19:56;;;;;;;20.55;15.65;;;;;;;;;;5054069;28;20103;-83
2022/04/10 08:22:25;;;;;;;26.55;18.98;;;231.30;2252.80;;;;;;5053802;28;20021;-80
2022/04/10 08:24:51;;;;;;;23.88;18.15;;;;;;;;;;5035909;28;20029;-84
2022/04/10 08:27:18;;;;;;;19.88;15.63;;;;;;;;;;5043151;28;20033;-75
2022/04/10 08:29:44;;;;;;;16.20;12.65;;;;;;;;;;5041026;28;20021;-76
2022/04/10 08:32:10;;;;;;;19.13;14.55;;;;;;;;;;5036567;28;20036;-74
2022/04/10 08:34:36;;;;;;;23.48;17.88;;;;;;;;;;5039259;28;20021;-78
2022/04/10 08:37:05;;;;;;;31.75;20.70;;;;;;;;;;5021901;28;20017;-79
2022/04/10 08:39:34;;;;;;;30.58;19.75;;;;;;;;;;5037677;28;20028;-78
2022/04/10 08:42:01;;;;;;;27.15;17.58;;;;;;;;;;5020315;28;20017;-78
2022/04/10 08:44:28;;;;;;;37.60;24.30;;;;;;;;;;5043713;28;20017;-77
2022/04/10 08:46:54;;;;;;;34.70;22.77;;;;;;;;;;5037130;28;20475;-79
2022/04/10 08:49:21;;;;;;;32.83;23.08;;;;;;;;;;5039233;28;20037;-77
2022/04/10 08:51:47;;;;;;;26.40;15.18;;;;;;;;;;5035627;28;20025;-74
2022/04/10 08:54:14;;;;;;;33.20;22.48;;;;;;;;;;5033113;28;20074;-80
2022/04/10 08:56:40;;;;;;;30.13;20.83;;;;;;;;;;5034328;28;20096;-76
2022/04/10 08:59:06;;;;;;;27.75;18.60;;;;;;;;;;5036053;28;20599;-77
2022/04/10 09:01:32;;;;;;;21.33;16.90;;;;;;;;;;5038049;28;20017;-77
2022/04/10 09:03:58;;;;;;;27.17;19.83;;;;;;;;;;5035733;28;20029;-78
2022/04/10 09:06:24;;;;;;;31.10;22.73;;;;;;;;;;5041534;28;20021;-79
2022/04/10 09:08:51;;;;;;;25.33;19.23;;;;;;;;;;5041056;28;20021;-77
2022/04/10 09:11:17;;;;;;;25.27;17.27;;;;;;;;;;5043643;28;20021;-85
2022/04/10 09:13:47;;;;;;;24.80;19.08;;;;;;;;;;5040995;28;20399;-83
2022/04/10 09:16:13;;;;;;;24.38;18.33;;;;;;;;;;5032609;28;20104;-82
2022/04/10 09:18:48;;;;;;;21.38;17.48;;;;;;;;;;5019519;28;20053;-78
2022/04/10 09:21:15;;;;;;;22.00;18.27;;;;;;;;;;5040819;28;20021;-78
2022/04/10 09:23:43;;;;;;;17.75;15.82;;;;;;;;;;5040659;28;20016;-77
2022/04/10 09:26:09;;;;;;;30.08;26.73;;;;;;;;;;5037213;28;20382;-79
2022/04/10 09:28:45;;;;;;;28.42;22.55;;;;;;;;;;5046766;28;20047;-81
2022/04/10 09:31:25;;;;;;;30.77;25.42;;;;;;;;;;5037908;28;20021;-77
2022/04/10 09:33:52;;;;;;;26.52;19.45;;;;;;;;;;5035765;28;20039;-80
2022/04/10 09:36:50;;;;;;;25.13;21.90;;;;;;;;;;5014218;28;20102;-76
2022/04/10 09:39:29;;;;;;;28.85;23.90;;;;;;;;;;4971302;28;20034;-75
2022/04/10 09:42:02;;;;;;;25.00;20.20;;;;;;;;;;4970948;28;20041;-79
2022/04/10 09:44:32;;;;;;;30.90;23.40;;;;;;;;;;4971890;28;20433;-77
2022/04/10 09:46:59;;;;;;;28.20;21.58;;;;;;;;;;4971100;28;20517;-78
2022/04/10 09:49:30;;;;;;;30.33;23.50;;;;;;;;;;4971308;28;20235;-75
2022/04/10 09:52:03;;;;;;;34.90;25.03;;;;;;;;;;4946816;28;20111;-79
2022/04/10 09:54:48;;;;;;;41.30;31.27;;;;;;;;;;4971540;28;20043;-76
2022/04/10 09:57:15;;;;;;;31.80;24.15;;;;;;;;;;4970781;28;20029;-75
2022/04/10 09:59:42;;;;;;;29.13;23.83;;;;;;;;;;4971373;28;20474;-73
2022/04/10 10:02:09;;;;;;;26.95;22.10;;;;;;;;;;4971664;28;20046;-74
2022/04/10 10:04:37;;;;;;;36.22;31.02;;;;;;;;;;4971477;28;20026;-75
2022/04/10 10:07:06;;;;;;;41.95;37.45;;;;;;;;;;4971952;28;20117;-72
2022/04/10 10:09:33;;;;;;;30.90;26.38;;;;;;;;;;4970418;28;20104;-73
2022/04/10 10:12:03;;;;;;;34.90;28.63;;;;;;;;;;4956565;28;20066;-72
2022/04/10 10:14:30;;;;;;;39.47;31.92;;;;;;;;;;4999088;28;20131;-75
2022/04/10 10:16:57;;;;;;;30.70;25.08;;;;;;;;;;5040990;28;20017;-74
2022/04/10 10:19:25;;;;;;;21.40;17.75;;;;;;;;;;5042108;28;20053;-74
2022/04/10 10:21:51;;;;;;;24.42;21.17;;;;;;;;;;5038497;28;20109;-74
2022/04/10 10:24:19;;;;;;;23.05;20.58;;;;;;;;;;5043536;28;20028;-74
2022/04/10 10:27:00;;;;;;;21.83;17.02;;;;;;;;;;5043329;28;20025;-76
2022/04/10 10:29:32;;;;;;;16.73;13.75;;;;;;;;;;5040656;28;20022;-75
2022/04/10 10:31:59;;;;;;;23.58;19.25;;;;;;;;;;5037760;28;20079;-75
2022/04/10 10:34:26;;;;;;;28.77;22.17;;;;;;;;;;5019638;28;20033;-73
2022/04/10 10:36:54;;;;;;;30.38;23.00;;;;;;;;;;5034169;28;20018;-73
2022/04/10 10:39:20;;;;;;;21.13;15.93;;;;;;;;;;5043297;28;20027;-72
2022/04/10 10:41:50;;;;;;;17.73;14.55;;;;;;;;;;5055134;28;20021;-72
2022/04/10 10:44:36;;;;;;;22.85;18.30;;;;;;;;;;5055332;28;20025;-73
2022/04/10 10:47:03;;;;;;;21.15;16.58;;;;;;;;;;5041612;28;20502;-73
2022/04/10 10:49:30;;;;;;;18.85;15.05;;;;;;;;;;5054984;28;20094;-72
2022/04/10 10:51:57;;;;;;;15.50;13.75;;;;;;;;;;5055163;28;20032;-73
2022/04/10 10:54:34;;;;;;;17.33;14.02;;;;;;;;;;5037046;28;20111;-72
2022/04/10 10:57:20;;;;;;;19.48;13.15;;;;;;;;;;5054885;28;20017;-73
2022/04/10 10:59:46;;;;;;;16.27;13.20;;;;;;;;;;5054875;28;20064;-73
2022/04/10 11:02:13;;;;;;;18.70;14.63;;;;;;;;;;5055234;28;20025;-72
2022/04/10 11:04:40;;;;;;;18.90;15.68;;;;;;;;;;5055166;28;20021;-72
2022/04/10 11:07:19;;;;;;;19.98;16.13;;;;;;;;;;5054732;28;20032;-74
2022/04/10 11:09:48;;;;;;;19.25;14.43;;;;;;;;;;5054489;28;20200;-74
2022/04/10 11:12:14;;;;;;;18.45;14.15;;;;;;;;;;5054450;28;20040;-73
2022/04/10 11:14:41;;;;;;;17.67;14.02;;;;;;;;;;5054695;28;20047;-73
2022/04/10 11:17:17;;;;;;;20.15;14.02;;;;;;;;;;5054659;28;20025;-72
2022/04/10 11:19:45;;;;;;;18.48;13.27;;;;;;;;;;5054388;28;20049;-73
2022/04/10 11:22:18;;;;;;;12.30;10.57;;;;;;;;;;5054640;28;20032;-73
2022/04/10 11:24:45;;;;;;;16.30;11.85;;;;;;;;;;5054227;28;20032;-73
2022/04/10 11:27:14;;;;;;;12.40;9.80;;;;;;;;;;5036080;28;20405;-73
2022/04/10 11:30:03;;;;;;;17.05;13.88;;;;;;;;;;5054114;28;20079;-73
2022/04/10 11:32:40;;;;;;;12.23;10.18;;;;;;;;;;4973176;28;20039;-73
2022/04/10 11:35:14;;;;;;;23.90;20.20;;;332.80;2329.60;;;;;;4973435;28;20038;-74
2022/04/10 11:37:39;;;;;;;23.17;19.40;;;332.80;2329.60;;;;;;4973396;28;20035;-74
2022/04/10 11:40:08;;;;;;;18.35;15.60;;;332.90;2329.60;;;;;;4973555;28;20117;-74
2022/04/10 11:42:34;;;;;;;22.35;18.08;;;308.10;2304.00;;;;;;4973072;28;20023;-73
2022/04/10 11:45:00;;;;;;;23.48;17.77;;;;;;;;;;4973304;28;20128;-72
2022/04/10 11:47:27;;;;;;;25.20;18.10;;;;;;;;;;4972923;28;20031;-73
2022/04/10 11:49:54;;;;;;;20.55;16.08;;;;;;;;;;4972890;28;20047;-72
2022/04/10 11:52:21;;;;;;;22.88;16.30;;;;;;;;;;4973003;28;20042;-74
2022/04/10 11:54:50;;;;;;;22.67;18.48;;;;;;;;;;4972974;28;20066;-76
2022/04/10 11:57:16;;;;;;;25.48;20.45;;;;;;;;;;4973010;28;20039;-74
2022/04/10 11:59:43;;;;;;;22.10;17.02;;;;;;;;;;4972924;28;20134;-73
2022/04/10 12:02:13;;;;;;;30.08;23.95;;;;;;;;;;4972818;28;20166;-74
2022/04/10 12:04:40;;;;;;;19.92;16.58;;;;;;;;;;4972969;28;20033;-73
2022/04/10 12:07:15;;;;;;;19.25;14.20;;;;;;;;;;4972872;28;20026;-73
2022/04/10 12:09:42;;;;;;;19.60;16.30;;;;;;;;;;5021047;28;20083;-73
2022/04/10 12:12:08;;;;;;;17.23;14.20;;;307.80;2304.00;;;;;;5053341;28;20021;-75
2022/04/10 12:14:34;;;;;;;19.80;15.43;;;307.80;2304.00;;;;;;5053732;28;20028;-75
2022/04/10 12:17:00;;;;;;;24.25;20.45;;;307.70;2304.00;;;;;;5035410;28;20025;-75
2022/04/10 12:19:36;;;;;;;21.55;16.77;;;307.80;2304.00;;;;;;5053016;28;20148;-74
2022/04/10 12:22:10;;;;;;;19.38;16.52;;;307.90;2304.00;;;;;;5059498;28;20070;-75
2022/04/10 12:24:38;;;;;;;20.17;17.33;;;307.90;2304.00;;;;;;5056760;28;20104;-74
2022/04/10 12:27:08;;;;;;;32.72;20.70;;;307.90;2304.00;;;;;;5052600;28;20028;-74
2022/04/10 12:29:37;;;;;;;27.43;19.43;;;307.90;2304.00;;;;;;5052412;28;20020;-75
2022/04/10 12:32:04;;;;;;;27.17;19.27;;;307.90;2304.00;;;;;;5052587;28;20021;-76
2022/04/10 12:34:35;;;;;;;24.02;15.23;;;308.00;2304.00;;;;;;5051843;28;20025;-77
2022/04/10 12:37:12;;;;;;;26.55;20.17;;;307.80;2304.00;;;;;;5052496;28;20021;-77
2022/04/10 12:39:39;;;;;;;25.02;20.20;;;308.00;2304.00;;;;;;5052386;28;20483;-78
2022/04/10 12:42:14;;;;;;;28.17;20.52;;;308.00;2304.00;;;;;;5053279;28;20028;-75
2022/04/10 12:44:41;;;;;;;23.27;18.55;;;307.80;2304.00;;;;;;5051297;28;20032;-75
2022/04/10 12:47:08;;;;;;;37.40;25.65;;;307.40;2304.00;;;;;;5052483;28;20519;-74
2022/04/10 12:49:39;;;;;;;26.10;18.92;;;307.30;2304.00;;;;;;5034191;28;20487;-76
2022/04/10 12:52:05;;;;;;;27.63;20.27;;;307.40;2304.00;;;;;;5048859;28;20025;-76
2022/04/10 12:54:42;;;;;;;26.58;18.17;;;307.60;2304.00;;;;;;5034695;28;20018;-75
2022/04/10 12:57:24;;;;;;;40.08;26.90;;;307.40;2304.00;;;;;;5032115;28;20029;-76
2022/04/10 12:59:50;;;;;;;39.30;25.58;;;;;;;;;;5032323;28;20033;-74
2022/04/10 13:02:24;;;;;;;34.22;23.45;;;307.60;2304.00;;;;;;5032317;28;20021;-75
2022/04/10 13:04:55;;;;;;;36.53;24.02;;;307.60;2304.00;;;;;;5032412;28;20033;-74
2022/04/10 13:07:23;;;;;;;36.58;26.48;;;;;;;;;;5032490;28;20055;-74
2022/04/10 13:09:50;;;;;;;24.63;20.02;;;;;;;;;;5032170;28;20084;-74
2022/04/10 13:12:23;;;;;;;54.25;42.30;;;;;;;;;;5032035;28;22001;-74
2022/04/10 13:14:52;;;;;;;44.78;35.10;;;;;;;;;;5014584;28;20033;-75
2022/04/10 13:17:19;;;;;;;33.40;25.20;;;;;;;;;;5014494;28;20416;-75
2022/04/10 13:19:45;;;;;;;23.58;18.92;;;307.60;2304.00;;;;;;5031820;28;20135;-76
2022/04/10 13:22:11;;;;;;;22.27;18.50;;;307.60;2304.00;;;;;;5043490;28;20029;-77
2022/04/10 13:24:37;;;;;;;16.48;14.73;;;;;;;;;;5051803;28;20048;-74
2022/04/10 13:27:04;;;;;;;25.67;21.77;;;;;;;;;;5051840;28;20500;-75
2022/04/10 13:29:31;;;;;;;26.60;21.77;;;;;;;;;;5051672;28;20029;-74
2022/04/10 13:31:57;;;;;;;19.92;17.27;;;;;;;;;;5051957;28;20074;-75
2022/04/10 13:34:24;;;;;;;24.30;19.27;;;;;;;;;;5051824;28;20036;-74